Aérodrome :
LOGIN :

S'inscrire | Disclaimer

   EN    FR    IT 

 










Légende :    VFR   VFR Marginal   IFR   IFR Intensif   IFR Très Intensif
Visi : 
Plafond : 
>= 8 km
>= 3000ft
5 à 8 km
1000 à 3000 ft
1500m à 5 km
500 à 1000 ft
800 à 1500m
200 à 500 ft
< 800m
< 200 ft
Symboles :   Orages  Brouillard  Fortes neiges  Fortes précipitations  Vent > 20 kt
SIGMETs :   Divers  Orages  Givrage  Turbulence  Onde Orograph.  Cendres Volcan.







- Altitude de l'aérodrome : 1276 ft
- Code IATA : STR


EDDS - Stuttgart

DERNIER METAR :
  • 210850Z VRB03KT 9999 FEW031 SCT280 18/11 Q1015 NOSIG

METARs EXPIRÉS :
  • 210820Z VRB03KT CAVOK 17/10 Q1015 NOSIG
  • 210750Z VRB03KT CAVOK 17/10 Q1015 NOSIG
  • 210720Z VRB02KT CAVOK 16/10 Q1015 NOSIG
  • 210650Z 11003KT 050V160 CAVOK 16/09 Q1015 NOSIG
  • 210620Z 09005KT CAVOK 15/10 Q1015 NOSIG

TAF TAF EDDS
Valide du 21 à 06h jusqu'au 22 à 06h UTC


210500Z 2106/2206 04003KT CAVOK
PROB30
TEMPO 2113/2117 19010KT TSRA SCT040CB
Pas de NOTAMs connus pour ce terrain.



MET'MAP, la Météo Aéronautique d'un coup d'oeil ! - Copyright ORBIFLY Décembre 2007 - Disclaimer

ORBIFLY MET'MAP TEAM :

Programmation & Développement : Alexandra Zaïnal
Conception & Développement : Baudouin d'Aumeries
Co-Programmation & Développement : Marc-Olivier Méhu
Soutien technique & logistique : Manuel Goepfert

Contact : metmap@orbifly.com




SOURCES & CREDITS :

   NOAA